Time;durP1;ratioP1;P1;durP2;ratioP2;P2;SDS_P1;SDS_P2;PMS_P1;PMS_P2;Temp;Humidity;BMP_temperature;BMP_pressure;BME280_temperature;BME280_humidity;BME280_pressure;Samples;Min_cycle;Max_cycle;Signal;HPM_P1;HPM_P2
2022/07/31 00:00:18;;;;;;;;;;;;;;;;;;5045680;28;20059;-61
2022/07/31 00:02:43;;;;;;;;;;;;;;;;;;5039241;28;19916;-59
2022/07/31 00:05:08;;;;;;;;;;;;;;;;;;5039795;28;20295;-59
2022/07/31 00:07:34;;;;;;;;;;;;;;;;;;5034512;28;19956;-59
2022/07/31 00:09:59;;;;;;;;;;;;;;;;;;5052853;28;19927;-59
2022/07/31 00:12:27;;;;;;;;;;;;;;;;;;5038991;28;19920;-59
2022/07/31 00:14:52;;;;;;;;;;;;;;;;;;5038107;28;19935;-59
2022/07/31 00:17:17;;;;;;;;;;;;;;;;;;5038191;28;21889;-60
2022/07/31 00:19:45;;;;;;;;;;;;;;;;;;5028859;28;19916;-58
2022/07/31 00:22:16;;;;;;;;;;;;;;;;;;5035898;28;19978;-59
2022/07/31 00:24:42;;;;;;;;;;;;;;;;;;5038582;28;21850;-59
2022/07/31 00:27:09;;;;;;;;;;;;;;;;;;5035710;28;19931;-59
2022/07/31 00:29:37;;;;;;;;;;;;;;;;;;5038379;28;19917;-59
2022/07/31 00:32:10;;;;;;;;;;;;;;;;;;5036194;28;19942;-59
2022/07/31 00:34:35;;;;;;;;;;;;;;;;;;5037550;28;19921;-60
2022/07/31 00:37:03;;;;;;;;;;;;;;;;;;5039135;28;20545;-58
2022/07/31 00:39:29;;;;;;;;;;;;;;;;;;5038805;28;19924;-59
2022/07/31 00:41:55;;;;;;;;;;;;;;;;;;5036601;28;20756;-59
2022/07/31 00:44:20;;;;;;;;;;;;;;;;;;5027856;28;19917;-59
2022/07/31 00:46:45;;;;;;;;;;;;;;;;;;5038600;28;21965;-57
2022/07/31 00:49:11;;;;;;;;;;;;;;;;;;5036435;28;20379;-58
2022/07/31 00:51:36;;;;;;;;;;;;;;;;;;5025414;28;19973;-59
2022/07/31 00:54:04;;;;;;;;;;;;;;;;;;5054547;28;19920;-60
2022/07/31 00:56:32;;;;;;;;;;;;;;;;;;5034355;28;19920;-60
2022/07/31 00:58:57;;;;;;;;;;;;;;;;;;5037122;28;21818;-59
2022/07/31 01:01:22;;;;;;;;;;;;;;;;;;5023599;28;19932;-59
2022/07/31 01:03:48;;;;;;;;;;;;;;;;;;5038411;28;19931;-58
2022/07/31 01:06:13;;;;;;;;;;;;;;;;;;5038937;28;19970;-59
2022/07/31 01:08:42;;;;;;;;;;;;;;;;;;5038119;28;19971;-59
2022/07/31 01:11:07;;;;;;;;;;;;;;;;;;5026063;28;20591;-58
2022/07/31 01:13:34;;;;;;;;;;;;;;;;;;5034547;28;19923;-58
2022/07/31 01:16:00;;;;;;;;;;;;;;;;;;5037311;28;19921;-59
2022/07/31 01:18:25;;;;;;;;;;;;;;;;;;5037238;28;20539;-60
2022/07/31 01:20:50;;;;;;;;;;;;;;;;;;5037585;28;19921;-56
2022/07/31 01:23:16;;;;;;;;;;;;;;;;;;5038727;28;20015;-59
2022/07/31 01:25:41;;;;;;;;;;;;;;;;;;5037417;28;19956;-58
2022/07/31 01:28:09;;;;;;;;;;;;;;;;;;5034710;28;19976;-57
2022/07/31 01:30:38;;;;;;;;;;;;;;;;;;5036093;28;22207;-59
2022/07/31 01:33:07;;;;;;;;;;;;;;;;;;5034744;28;20001;-59
2022/07/31 01:35:35;;;;;;;;;;;;;;;;;;5039735;28;20407;-58
2022/07/31 01:38:02;;;;;;;;;;;;;;;;;;5027312;28;20012;-58
2022/07/31 01:40:30;;;;;;;;;;;;;;;;;;5034082;28;19916;-59
2022/07/31 01:42:58;;;;;;;;;;;;;;;;;;5038521;28;19925;-58
2022/07/31 01:45:23;;;;;;;;;;;;;;;;;;5035652;28;19943;-59
2022/07/31 01:47:50;;;;;;;;;;;;;;;;;;5026502;28;19925;-58
2022/07/31 01:50:15;;;;;;;;;;;;;;;;;;5036187;28;19939;-59
2022/07/31 01:52:40;;;;;;;;;;;;;;;;;;5033809;28;19921;-57
2022/07/31 01:55:06;;;;;;;;;;;;;;;;;;5037695;28;22093;-59
2022/07/31 01:57:33;;;;;;;;;;;;;;;;;;5021663;28;20027;-58
2022/07/31 01:59:59;;;;;;;;;;;;;;;;;;5036668;28;19924;-59
2022/07/31 02:02:26;;;;;;;;;;;;;;;;;;5036144;28;19962;-58
2022/07/31 02:04:54;;;;;;;;;;;;;;;;;;5038166;28;20481;-58
2022/07/31 02:07:21;;;;;;;;;;;;;;;;;;5037965;28;20652;-58
2022/07/31 02:09:49;;;;;;;;;;;;;;;;;;5036351;28;19966;-59
2022/07/31 02:12:15;;;;;;;;;;;;;;;;;;5048267;28;19920;-59
2022/07/31 02:14:43;;;;;;;;;;;;;;;;;;5038151;28;19921;-59
2022/07/31 02:17:10;;;;;;;;;;;;;;;;;;5034991;28;19920;-60
2022/07/31 02:19:40;;;;;;;;;;;;;;;;;;5036614;28;19955;-59
2022/07/31 02:22:06;;;;;;;;;;;;;;;;;;5036796;28;19916;-59
2022/07/31 02:24:33;;;;;;;;;;;;;;;;;;5035718;28;20257;-59
2022/07/31 02:27:03;;;;;;;;;;;;;;;;;;5035816;28;19921;-59
2022/07/31 02:29:28;;;;;;;;;;;;;;;;;;5037660;28;19931;-59
2022/07/31 02:31:54;;;;;;;;;;;;;;;;;;5042556;28;19920;-60
2022/07/31 02:34:24;;;;;;;;;;;;;;;;;;5039986;28;19924;-59
2022/07/31 02:36:51;;;;;;;;;;;;;;;;;;5041619;28;20069;-58
2022/07/31 02:39:17;;;;;;;;;;;;;;;;;;5040445;28;21947;-58
2022/07/31 02:41:42;;;;;;;;;;;;;;;;;;5045750;28;19916;-59
2022/07/31 02:44:10;;;;;;;;;;;;;;;;;;5038418;28;22447;-59
2022/07/31 02:46:35;;;;;;;;;;;;;;;;;;5038511;28;19944;-59
2022/07/31 02:49:01;;;;;;;;;;;;;;;;;;5028638;28;20419;-59
2022/07/31 02:51:30;;;;;;;;;;;;;;;;;;5038917;28;19920;-59
2022/07/31 02:53:58;;;;;;;;;;;;;;;;;;5033223;28;20473;-57
2022/07/31 02:56:23;;;;;;;;;;;;;;;;;;5040266;28;21675;-59
2022/07/31 02:58:51;;;;;;;;;;;;;;;;;;5042277;28;19924;-59
2022/07/31 03:01:16;;;;;;;;;;;;;;;;;;5027108;28;19923;-59
2022/07/31 03:03:44;;;;;;;;;;;;;;;;;;5040875;28;19921;-58
2022/07/31 03:06:13;;;;;;;;;;;;;;;;;;5040962;28;19921;-59
2022/07/31 03:08:39;;;;;;;;;;;;;;;;;;5040100;28;19924;-60
2022/07/31 03:11:04;;;;;;;;;;;;;;;;;;5039222;28;20441;-63
2022/07/31 03:13:35;;;;;;;;;;;;;;;;;;5028231;28;19920;-61
2022/07/31 03:16:05;;;;;;;;;;;;;;;;;;5039029;28;19921;-59
2022/07/31 03:18:33;;;;;;;;;;;;;;;;;;5038710;28;19931;-60
2022/07/31 03:21:00;;;;;;;;;;;;;;;;;;5041330;28;19931;-59
2022/07/31 03:23:26;;;;;;;;;;;;;;;;;;5039711;28;19924;-59
2022/07/31 03:25:51;;;;;;;;;;;;;;;;;;5029531;28;19920;-58
2022/07/31 03:28:21;;;;;;;;;;;;;;;;;;5039448;28;19928;-59
2022/07/31 03:30:49;;;;;;;;;;;;;;;;;;5039874;28;20813;-58
2022/07/31 03:33:14;;;;;;;;;;;;;;;;;;5042250;28;19923;-59
2022/07/31 03:35:39;;;;;;;;;;;;;;;;;;5041644;28;19921;-59
2022/07/31 03:38:05;;;;;;;;;;;;;;;;;;5036935;28;19917;-58
2022/07/31 03:40:30;;;;;;;;;;;;;;;;;;5037264;28;19934;-60
2022/07/31 03:42:55;;;;;;;;;;;;;;;;;;5039219;28;19964;-58
2022/07/31 03:45:21;;;;;;;;;;;;;;;;;;5040285;28;19944;-59
2022/07/31 03:47:49;;;;;;;;;;;;;;;;;;5037002;28;19970;-59
2022/07/31 03:50:14;;;;;;;;;;;;;;;;;;5040058;28;20013;-59
2022/07/31 03:52:39;;;;;;;;;;;;;;;;;;5037199;28;20576;-59
2022/07/31 03:55:05;;;;;;;;;;;;;;;;;;5036533;28;20521;-58
2022/07/31 03:57:32;;;;;;;;;;;;;;;;;;5028307;28;19921;-59
2022/07/31 04:00:01;;;;;;;;;;;;;;;;;;5036678;28;19928;-59
2022/07/31 04:02:28;;;;;;;;;;;;;;;;;;5037132;28;20108;-58
2022/07/31 04:04:57;;;;;;;;;;;;;;;;;;5036806;28;19959;-58
2022/07/31 04:07:22;;;;;;;;;;;;;;;;;;5028156;28;19931;-60
2022/07/31 04:09:50;;;;;;;;;;;;;;;;;;5040558;28;19924;-59
2022/07/31 04:12:23;;;;;;;;;;;;;;;;;;5040107;28;19920;-59
2022/07/31 04:14:49;;;;;;;;;;;;;;;;;;5035292;28;19936;-60
2022/07/31 04:17:17;;;;;;;;;;;;;;;;;;5040062;28;20011;-59
2022/07/31 04:19:42;;;;;;;;;;;;;;;;;;5038594;28;20093;-59
2022/07/31 04:22:08;;;;;;;;;;;;;;;;;;5038458;28;20399;-58
2022/07/31 04:24:33;;;;;;;;;;;;;;;;;;5039830;28;19924;-59
2022/07/31 04:27:03;;;;;;;;;;;;;;;;;;5037914;28;19925;-59
2022/07/31 04:29:28;;;;;;;;;;;;;;;;;;5028327;28;19928;-58
2022/07/31 04:31:55;;;;;;;;;;;;;;;;;;5036904;28;20352;-58
2022/07/31 04:34:21;;;;;;;;;;;;;;;;;;5038313;28;20011;-59
2022/07/31 04:36:46;;;;;;;;;;;;;;;;;;5036331;28;20015;-59
2022/07/31 04:39:12;;;;;;;;;;;;;;;;;;5038953;28;19921;-59
2022/07/31 04:41:37;;;;;;;;;;;;;;;;;;5023081;28;19924;-58
2022/07/31 04:44:02;;;;;;;;;;;;;;;;;;5036092;28;20009;-58
2022/07/31 04:46:27;;;;;;;;;;;;;;;;;;5038932;28;19924;-59
2022/07/31 04:48:53;;;;;;;;;;;;;;;;;;5045643;28;19924;-59
2022/07/31 04:51:21;;;;;;;;;;;;;;;;;;5039937;28;19924;-59
2022/07/31 04:53:51;;;;;;;;;;;;;;;;;;5021394;28;19927;-59
2022/07/31 04:56:32;;;;;;;;;;;;;;;;;;5037339;28;20950;-59
2022/07/31 04:58:57;;;;;;;;;;;;;;;;;;5036128;28;19924;-59
2022/07/31 05:01:25;;;;;;;;;;;;;;;;;;5040628;28;20019;-59
2022/07/31 05:03:53;;;;;;;;;;;;;;;;;;5035214;28;19967;-59
2022/07/31 05:06:21;;;;;;;;;;;;;;;;;;5038458;28;20178;-59
2022/07/31 05:08:46;;;;;;;;;;;;;;;;;;5037905;28;19924;-59
2022/07/31 05:11:24;;;;;;;;;;;;;;;;;;5034634;28;19916;-58
2022/07/31 05:13:49;;;;;;;;;;;;;;;;;;5039782;28;21940;-58
2022/07/31 05:16:14;;;;;;;;;;;;;;;;;;5037755;28;20055;-59
2022/07/31 05:18:39;;;;;;;;;;;;;;;;;;5040085;28;19927;-58
2022/07/31 05:21:04;;;;;;;;;;;;;;;;;;5037523;28;20366;-59
2022/07/31 05:23:34;;;;;;;;;;;;;;;;;;5027434;28;19952;-59
2022/07/31 05:26:00;;;;;;;;;;;;;;;;;;5037845;28;19917;-58
2022/07/31 05:28:26;;;;;;;;;;;;;;;;;;5034486;28;20126;-58
2022/07/31 05:30:53;;;;;;;;;;;;;;;;;;5039267;28;20530;-59
2022/07/31 05:33:24;;;;;;;;;;;;;;;;;;5037260;28;20481;-59
2022/07/31 05:35:49;;;;;;;;;;;;;;;;;;5038104;28;19916;-59
2022/07/31 05:38:14;;;;;;;;;;;;;;;;;;5035392;28;19954;-59
2022/07/31 05:40:40;;;;;;;;;;;;;;;;;;5036375;28;20509;-59
2022/07/31 05:43:07;;;;;;;;;;;;;;;;;;5038491;28;19916;-58
2022/07/31 05:45:33;;;;;;;;;;;;;;;;;;5038675;28;19931;-58
2022/07/31 05:48:01;;;;;;;;;;;;;;;;;;5036652;28;19936;-59
2022/07/31 05:50:26;;;;;;;;;;;;;;;;;;5037342;28;19925;-59
2022/07/31 05:52:54;;;;;;;;;;;;;;;;;;5034213;28;20782;-59
2022/07/31 05:55:19;;;;;;;;;;;;;;;;;;5051606;28;20015;-59
2022/07/31 05:57:47;;;;;;;;;;;;;;;;;;5038867;28;20639;-58
2022/07/31 06:00:12;;;;;;;;;;;;;;;;;;5037580;28;19943;-60
2022/07/31 06:02:38;;;;;;;;;;;;;;;;;;5035748;28;19925;-58
2022/07/31 06:05:04;;;;;;;;;;;;;;;;;;5039417;28;19920;-58
2022/07/31 06:07:29;;;;;;;;;;;;;;;;;;5039549;28;19928;-59
2022/07/31 06:09:57;;;;;;;;;;;;;;;;;;5040540;28;20000;-59
2022/07/31 06:12:29;;;;;;;;;;;;;;;;;;5039320;28;19927;-59
2022/07/31 06:14:56;;;;;;;;;;;;;;;;;;5038184;28;20583;-59
2022/07/31 06:17:22;;;;;;;;;;;;;;;;;;5038687;28;19924;-60
2022/07/31 06:19:47;;;;;;;;;;;;;;;;;;5042397;28;19920;-60
2022/07/31 06:22:15;;;;;;;;;;;;;;;;;;5031001;28;19963;-60
2022/07/31 06:24:40;;;;;;;;;;;;;;;;;;5030817;28;20051;-61
2022/07/31 06:27:05;;;;;;;;;;;;;;;;;;5037664;28;19928;-59
2022/07/31 06:29:33;;;;;;;;;;;;;;;;;;5037219;28;19956;-59
2022/07/31 06:31:59;;;;;;;;;;;;;;;;;;5040835;28;20101;-59
2022/07/31 06:34:26;;;;;;;;;;;;;;;;;;5028859;28;19924;-60
2022/07/31 06:36:52;;;;;;;;;;;;;;;;;;5039699;28;19970;-60
2022/07/31 06:39:17;;;;;;;;;;;;;;;;;;5040675;28;19925;-60
2022/07/31 06:41:48;;;;;;;;;;;;;;;;;;5038037;28;19921;-60
2022/07/31 06:44:13;;;;;;;;;;;;;;;;;;5040785;28;20916;-60
2022/07/31 06:46:41;;;;;;;;;;;;;;;;;;5041161;28;19921;-60
2022/07/31 06:49:09;;;;;;;;;;;;;;;;;;5038236;28;20163;-60
2022/07/31 06:51:36;;;;;;;;;;;;;;;;;;5041524;28;19917;-61
2022/07/31 06:54:02;;;;;;;;;;;;;;;;;;5042095;28;19928;-61
2022/07/31 06:56:35;;;;;;;;;;;;;;;;;;5035829;28;19924;-60
2022/07/31 06:59:00;;;;;;;;;;;;;;;;;;5031740;28;20747;-60
2022/07/31 07:01:25;;;;;;;;;;;;;;;;;;5028180;28;19920;-60
2022/07/31 07:03:50;;;;;;;;;;;;;;;;;;5041157;28;19928;-60
2022/07/31 07:06:16;;;;;;;;;;;;;;;;;;5039330;28;19958;-61
2022/07/31 07:08:43;;;;;;;;;;;;;;;;;;5039760;28;19920;-62
2022/07/31 07:11:11;;;;;;;;;;;;;;;;;;5041184;28;19924;-61
2022/07/31 07:13:41;;;;;;;;;;;;;;;;;;5036405;28;20898;-58
2022/07/31 07:16:06;;;;;;;;;;;;;;;;;;5040440;28;19920;-58
2022/07/31 07:18:35;;;;;;;;;;;;;;;;;;5038776;28;19927;-60
2022/07/31 07:21:01;;;;;;;;;;;;;;;;;;5041516;28;19920;-58
2022/07/31 07:23:28;;;;;;;;;;;;;;;;;;5040350;28;19920;-58
2022/07/31 07:25:53;;;;;;;;;;;;;;;;;;5039533;28;19928;-60
2022/07/31 07:28:21;;;;;;;;;;;;;;;;;;5038265;28;20296;-60
2022/07/31 07:30:46;;;;;;;;;;;;;;;;;;5039089;28;20504;-61
2022/07/31 07:33:11;;;;;;;;;;;;;;;;;;5038218;28;19929;-60
2022/07/31 07:35:38;;;;;;;;;;;;;;;;;;5040524;28;19927;-61
2022/07/31 07:38:03;;;;;;;;;;;;;;;;;;5041516;28;19947;-60
2022/07/31 07:40:28;;;;;;;;;;;;;;;;;;5041031;28;20464;-59
2022/07/31 07:42:58;;;;;;;;;;;;;;;;;;5036263;28;19924;-60
2022/07/31 07:45:26;;;;;;;;;;;;;;;;;;5040107;28;19956;-60
2022/07/31 07:47:51;;;;;;;;;;;;;;;;;;5040400;28;20062;-59
2022/07/31 07:50:19;;;;;;;;;;;;;;;;;;5038048;28;19936;-60
2022/07/31 07:52:46;;;;;;;;;;;;;;;;;;5040157;28;20015;-61
2022/07/31 07:55:12;;;;;;;;;;;;;;;;;;5037926;28;19927;-61
2022/07/31 07:57:41;;;;;;;;;;;;;;;;;;5038715;28;20547;-60
2022/07/31 08:00:06;;;;;;;;;;;;;;;;;;5039574;28;20007;-59
2022/07/31 08:02:32;;;;;;;;;;;;;;;;;;5036426;28;20008;-58
2022/07/31 08:04:57;;;;;;;;;;;;;;;;;;5038417;28;19924;-59
2022/07/31 08:07:22;;;;;;;;;;;;;;;;;;5040338;28;20696;-60
2022/07/31 08:09:48;;;;;;;;;;;;;;;;;;5039783;28;19920;-60
2022/07/31 08:12:15;;;;;;;;;;;;;;;;;;5037548;28;20355;-60
2022/07/31 08:14:43;;;;;;;;;;;;;;;;;;5038646;28;19921;-60
2022/07/31 08:17:08;;;;;;;;;;;;;;;;;;5038289;28;20713;-60
2022/07/31 08:19:34;;;;;;;;;;;;;;;;;;5054182;28;19921;-60
2022/07/31 08:22:01;;;;;;;;;;;;;;;;;;5039189;28;19930;-60
2022/07/31 08:24:31;;;;;;;;;;;;;;;;;;5036090;28;19927;-60
2022/07/31 08:29:44;;;;;;;;;;;;;;;;;;5036298;28;19924;-60
2022/07/31 08:32:09;;;;;;;;;;;;;;;;;;5037209;28;19923;-60
2022/07/31 08:34:37;;;;;;;;;;;;;;;;;;5029184;28;19924;-60
2022/07/31 08:37:05;;;;;;;;;;;;;;;;;;5040038;28;19921;-60
2022/07/31 08:39:33;;;;;;;;;;;;;;;;;;5037841;28;20008;-59
2022/07/31 08:41:58;;;;;;;;;;;;;;;;;;5036132;28;20529;-59
2022/07/31 08:44:26;;;;;;;;;;;;;;;;;;5038869;28;19917;-60
2022/07/31 08:46:53;;;;;;;;;;;;;;;;;;5029570;28;20924;-59
2022/07/31 08:49:22;;;;;;;;;;;;;;;;;;5039048;28;19927;-60
2022/07/31 08:51:49;;;;;;;;;;;;;;;;;;5037112;28;19920;-60
2022/07/31 08:54:15;;;;;;;;;;;;;;;;;;5040221;28;19928;-60
2022/07/31 08:56:45;;;;;;;;;;;;;;;;;;5039464;28;19920;-61
2022/07/31 08:59:16;;;;;;;;;;;;;;;;;;5038193;28;20292;-60
2022/07/31 09:01:43;;;;;;;;;;;;;;;;;;5038729;28;19920;-60
2022/07/31 09:04:08;;;;;;;;;;;;;;;;;;5038607;28;19921;-60
2022/07/31 09:06:34;;;;;;;;;;;;;;;;;;5038363;28;19960;-61
2022/07/31 09:09:02;;;;;;;;;;;;;;;;;;5035837;28;20339;-60
2022/07/31 09:11:27;;;;;;;;;;;;;;;;;;5035383;28;20019;-60
2022/07/31 09:13:53;;;;;;;;;;;;;;;;;;5036454;28;19920;-59
2022/07/31 09:16:19;;;;;;;;;;;;;;;;;;5037831;28;19921;-60
2022/07/31 09:18:44;;;;;;;;;;;;;;;;;;5040891;28;19917;-60
2022/07/31 09:21:12;;;;;;;;;;;;;;;;;;5041089;28;20299;-62
2022/07/31 09:23:37;;;;;;;;;;;;;;;;;;5038131;28;20054;-60
2022/07/31 09:26:03;;;;;;;;;;;;;;;;;;5037922;28;20010;-63
2022/07/31 09:28:28;;;;;;;;;;;;;;;;;;5040461;28;20375;-59
2022/07/31 09:30:53;;;;;;;;;;;;;;;;;;5035989;28;20898;-59
2022/07/31 09:33:18;;;;;;;;;;;;;;;;;;5038508;28;20039;-60
2022/07/31 09:35:44;;;;;;;;;;;;;;;;;;5036423;28;20143;-58
2022/07/31 09:38:09;;;;;;;;;;;;;;;;;;5035822;28;20015;-59
2022/07/31 09:40:35;;;;;;;;;;;;;;;;;;5039457;28;19966;-59
2022/07/31 09:43:00;;;;;;;;;;;;;;;;;;5038862;28;20169;-59
2022/07/31 09:45:26;;;;;;;;;;;;;;;;;;5033499;28;19921;-60
2022/07/31 09:47:54;;;;;;;;;;;;;;;;;;5038507;28;19920;-58
2022/07/31 09:50:21;;;;;;;;;;;;;;;;;;5039520;28;19920;-57
2022/07/31 09:52:47;;;;;;;;;;;;;;;;;;5038623;28;19986;-58
2022/07/31 09:55:14;;;;;;;;;;;;;;;;;;5038819;28;19920;-57
2022/07/31 09:57:40;;;;;;;;;;;;;;;;;;5034736;28;19920;-57
2022/07/31 10:00:05;;;;;;;;;;;;;;;;;;5037465;28;21176;-57
2022/07/31 10:02:31;;;;;;;;;;;;;;;;;;5039431;28;19920;-58
2022/07/31 10:04:56;;;;;;;;;;;;;;;;;;5020919;28;20016;-58
2022/07/31 10:07:26;;;;;;;;;;;;;;;;;;5038228;28;20257;-59
2022/07/31 10:09:51;;;;;;;;;;;;;;;;;;5021624;28;19925;-57
2022/07/31 10:12:16;;;;;;;;;;;;;;;;;;5036760;28;20691;-58
2022/07/31 10:14:44;;;;;;;;;;;;;;;;;;5038570;28;20663;-58
2022/07/31 10:17:09;;;;;;;;;;;;;;;;;;5025065;28;19927;-57
2022/07/31 10:19:37;;;;;;;;;;;;;;;;;;5044317;28;19916;-59
2022/07/31 10:22:02;;;;;;;;;;;;;;;;;;5037000;28;20596;-57
2022/07/31 10:24:31;;;;;;;;;;;;;;;;;;5038233;28;20584;-57
2022/07/31 10:27:04;;;;;;;;;;;;;;;;;;5039197;28;20606;-57
2022/07/31 10:29:29;;;;;;;;;;;;;;;;;;5022077;28;20320;-58
2022/07/31 10:31:55;;;;;;;;;;;;;;;;;;5038403;28;19954;-58
2022/07/31 10:34:23;;;;;;;;;;;;;;;;;;5037788;28;19916;-59
2022/07/31 10:36:48;;;;;;;;;;;;;;;;;;5038602;28;19934;-61
2022/07/31 10:39:16;;;;;;;;;;;;;;;;;;5024090;28;19916;-63
2022/07/31 10:41:41;;;;;;;;;;;;;;;;;;5034946;28;19981;-62
2022/07/31 10:44:06;;;;;;;;;;;;;;;;;;5037762;28;19921;-63
2022/07/31 10:46:34;;;;;;;;;;;;;;;;;;5044942;28;19997;-63
2022/07/31 10:49:00;;;;;;;;;;;;;;;;;;5037120;28;19936;-64
2022/07/31 10:51:25;;;;;;;;;;;;;;;;;;5041207;28;20371;-64
2022/07/31 10:53:50;;;;;;;;;;;;;;;;;;5042574;28;20054;-65
2022/07/31 10:56:18;;;;;;;;;;;;;;;;;;5041240;28;19916;-66
2022/07/31 10:58:43;;;;;;;;;;;;;;;;;;5027637;28;19935;-64
2022/07/31 11:01:13;;;;;;;;;;;;;;;;;;5043169;28;20043;-64
2022/07/31 11:03:39;;;;;;;;;;;;;;;;;;5056635;28;19970;-66
2022/07/31 11:06:04;;;;;;;;;;;;;;;;;;5047446;28;19921;-64
2022/07/31 11:08:29;;;;;;;;;;;;;;;;;;5029993;28;19920;-66
2022/07/31 11:10:55;;;;;;;;;;;;;;;;;;5041716;28;19940;-63
2022/07/31 11:13:22;;;;;;;;;;;;;;;;;;5040153;28;20075;-63
2022/07/31 11:15:47;;;;;;;;;;;;;;;;;;5041739;28;19931;-63
2022/07/31 11:18:15;;;;;;;;;;;;;;;;;;5038688;28;19916;-64
2022/07/31 11:20:45;;;;;;;;;;;;;;;;;;5041167;28;19928;-64
2022/07/31 11:23:14;;;;;;;;;;;;;;;;;;5038478;28;20911;-64
2022/07/31 11:25:41;;;;;;;;;;;;;;;;;;5039914;28;19917;-65
2022/07/31 11:28:09;;;;;;;;;;;;;;;;;;5023195;28;19932;-65
2022/07/31 11:30:35;;;;;;;;;;;;;;;;;;5041113;28;19960;-64
2022/07/31 11:33:00;;;;;;;;;;;;;;;;;;5040243;28;19924;-65
2022/07/31 11:35:25;;;;;;;;;;;;;;;;;;5041033;28;20778;-62
2022/07/31 11:37:50;;;;;;;;;;;;;;;;;;5038556;28;19921;-64
2022/07/31 11:40:19;;;;;;;;;;;;;;;;;;5037262;28;20059;-63
2022/07/31 11:42:45;;;;;;;;;;;;;;;;;;5024846;28;19924;-64
2022/07/31 11:45:15;;;;;;;;;;;;;;;;;;5041559;28;20002;-62
2022/07/31 11:47:40;;;;;;;;;;;;;;;;;;5036949;28;20846;-63
2022/07/31 11:50:06;;;;;;;;;;;;;;;;;;5045855;28;19966;-62
2022/07/31 11:52:32;;;;;;;;;;;;;;;;;;5041650;28;20006;-62
2022/07/31 11:55:00;;;;;;;;;;;;;;;;;;5027448;28;19916;-63
2022/07/31 11:57:25;;;;;;;;;;;;;;;;;;5040451;28;19963;-62
2022/07/31 11:59:55;;;;;;;;;;;;;;;;;;5037219;28;19927;-63
2022/07/31 12:02:24;;;;;;;;;;;;;;;;;;5039716;28;19920;-62
2022/07/31 12:04:49;;;;;;;;;;;;;;;;;;5040231;28;19917;-62
2022/07/31 12:07:17;;;;;;;;;;;;;;;;;;5040326;28;20719;-64
2022/07/31 12:09:44;;;;;;;;;;;;;;;;;;5039751;28;20007;-63
2022/07/31 12:12:10;;;;;;;;;;;;;;;;;;5038879;28;20419;-64
2022/07/31 12:14:35;;;;;;;;;;;;;;;;;;5037717;28;19921;-63
2022/07/31 12:17:01;;;;;;;;;;;;;;;;;;5042327;28;19931;-63
2022/07/31 12:19:29;;;;;;;;;;;;;;;;;;5039209;28;19921;-63
2022/07/31 12:21:54;;;;;;;;;;;;;;;;;;5039557;28;19931;-62
2022/07/31 12:24:22;;;;;;;;;;;;;;;;;;5038955;28;20367;-64
2022/07/31 12:26:50;;;;;;;;;;;;;;;;;;5026906;28;20460;-62
2022/07/31 12:29:15;;;;;;;;;;;;;;;;;;5038677;28;19990;-63
2022/07/31 12:31:43;;;;;;;;;;;;;;;;;;5023036;28;19927;-62
2022/07/31 12:34:10;;;;;;;;;;;;;;;;;;5037584;28;20058;-63
2022/07/31 12:36:38;;;;;;;;;;;;;;;;;;5045180;28;19928;-61
2022/07/31 12:39:06;;;;;;;;;;;;;;;;;;5035931;28;19916;-64
2022/07/31 12:41:31;;;;;;;;;;;;;;;;;;5039318;28;19951;-61
2022/07/31 12:43:59;;;;;;;;;;;;;;;;;;5026298;28;19952;-62
2022/07/31 12:46:26;;;;;;;;;;;;;;;;;;5039460;28;19916;-63
2022/07/31 12:48:54;;;;;;;;;;;;;;;;;;5040350;28;19921;-62
2022/07/31 12:51:24;;;;;;;;;;;;;;;;;;5040952;28;19920;-63
2022/07/31 12:53:49;;;;;;;;;;;;;;;;;;5040660;28;19923;-63
2022/07/31 12:56:17;;;;;;;;;;;;;;;;;;5038225;28;19921;-63
2022/07/31 12:58:45;;;;;;;;;;;;;;;;;;5040376;28;19917;-62
2022/07/31 13:01:10;;;;;;;;;;;;;;;;;;5036093;28;19932;-64
2022/07/31 13:03:35;;;;;;;;;;;;;;;;;;5039026;28;19933;-62
2022/07/31 13:06:05;;;;;;;;;;;;;;;;;;5028569;28;19917;-62
2022/07/31 13:08:31;;;;;;;;;;;;;;;;;;5036789;28;20027;-62
2022/07/31 13:10:56;;;;;;;;;;;;;;;;;;5037528;28;19955;-66
2022/07/31 13:13:22;;;;;;;;;;;;;;;;;;5041941;28;19944;-64
2022/07/31 13:15:48;;;;;;;;;;;;;;;;;;5024048;28;20280;-65
2022/07/31 13:18:13;;;;;;;;;;;;;;;;;;5040251;28;19921;-64
2022/07/31 13:20:38;;;;;;;;;;;;;;;;;;5037657;28;19924;-65
2022/07/31 13:23:04;;;;;;;;;;;;;;;;;;5039233;28;19920;-65
2022/07/31 13:25:31;;;;;;;;;;;;;;;;;;5037637;28;19979;-65
2022/07/31 13:27:57;;;;;;;;;;;;;;;;;;5045668;28;20456;-65
2022/07/31 13:30:23;;;;;;;;;;;;;;;;;;5035667;28;19928;-64
2022/07/31 13:32:49;;;;;;;;;;;;;;;;;;5038069;28;19924;-63
2022/07/31 13:35:18;;;;;;;;;;;;;;;;;;5040463;28;21614;-65
2022/07/31 13:37:43;;;;;;;;;;;;;;;;;;5038728;28;20383;-64
2022/07/31 13:40:11;;;;;;;;;;;;;;;;;;5036800;28;19920;-65
2022/07/31 13:42:36;;;;;;;;;;;;;;;;;;5038700;28;20544;-63
2022/07/31 13:45:02;;;;;;;;;;;;;;;;;;5035149;28;19952;-63
2022/07/31 13:47:27;;;;;;;;;;;;;;;;;;5036090;28;20379;-64
2022/07/31 13:49:52;;;;;;;;;;;;;;;;;;5039455;28;20402;-64
2022/07/31 13:52:18;;;;;;;;;;;;;;;;;;5037778;28;19920;-67
2022/07/31 13:54:43;;;;;;;;;;;;;;;;;;5038351;28;19920;-63
2022/07/31 13:57:09;;;;;;;;;;;;;;;;;;5038467;28;19932;-63
2022/07/31 13:59:34;;;;;;;;;;;;;;;;;;5037440;28;19939;-61
2022/07/31 14:02:02;;;;;;;;;;;;;;;;;;5037927;28;19947;-62
2022/07/31 14:04:30;;;;;;;;;;;;;;;;;;5038028;28;19952;-64
2022/07/31 14:06:55;;;;;;;;;;;;;;;;;;5039121;28;20043;-64
2022/07/31 14:09:23;;;;;;;;;;;;;;;;;;5037331;28;20383;-64
2022/07/31 14:11:51;;;;;;;;;;;;;;;;;;5037505;28;19947;-67
2022/07/31 14:14:16;;;;;;;;;;;;;;;;;;5039183;28;19920;-65
2022/07/31 14:16:44;;;;;;;;;;;;;;;;;;5035782;28;20063;-64
2022/07/31 14:19:11;;;;;;;;;;;;;;;;;;5036639;28;20955;-64
2022/07/31 14:21:39;;;;;;;;;;;;;;;;;;5037240;28;21129;-63
2022/07/31 14:24:04;;;;;;;;;;;;;;;;;;5038009;28;19931;-63
2022/07/31 14:26:30;;;;;;;;;;;;;;;;;;5039868;28;19959;-62
2022/07/31 14:28:55;;;;;;;;;;;;;;;;;;5040412;28;19928;-62
2022/07/31 14:31:20;;;;;;;;;;;;;;;;;;5038938;28;19923;-62
2022/07/31 14:33:46;;;;;;;;;;;;;;;;;;5040880;28;19920;-63
2022/07/31 14:36:12;;;;;;;;;;;;;;;;;;5040822;28;19920;-63
2022/07/31 14:38:37;;;;;;;;;;;;;;;;;;5042494;28;20121;-63
2022/07/31 14:41:02;;;;;;;;;;;;;;;;;;5039777;28;19921;-63
2022/07/31 14:43:28;;;;;;;;;;;;;;;;;;5041280;28;20554;-63
2022/07/31 14:45:53;;;;;;;;;;;;;;;;;;5038792;28;20381;-62
2022/07/31 14:48:21;;;;;;;;;;;;;;;;;;5039861;28;19925;-63
2022/07/31 14:50:49;;;;;;;;;;;;;;;;;;5039274;28;20826;-60
2022/07/31 14:53:17;;;;;;;;;;;;;;;;;;5040745;28;19923;-62
2022/07/31 14:55:43;;;;;;;;;;;;;;;;;;5040768;28;19921;-61
2022/07/31 14:58:10;;;;;;;;;;;;;;;;;;5039578;28;20035;-60
2022/07/31 15:00:38;;;;;;;;;;;;;;;;;;5031209;28;21800;-62
2022/07/31 15:03:03;;;;;;;;;;;;;;;;;;5041809;28;19916;-61
2022/07/31 15:05:29;;;;;;;;;;;;;;;;;;5037872;28;21795;-62
2022/07/31 15:07:54;;;;;;;;;;;;;;;;;;5041144;28;19932;-59
2022/07/31 15:10:20;;;;;;;;;;;;;;;;;;5039204;28;19947;-60
2022/07/31 15:12:48;;;;;;;;;;;;;;;;;;5040456;28;20015;-60
2022/07/31 15:15:13;;;;;;;;;;;;;;;;;;5041427;28;19946;-59
2022/07/31 15:17:40;;;;;;;;;;;;;;;;;;5040983;28;19996;-59
2022/07/31 15:20:10;;;;;;;;;;;;;;;;;;5054700;28;19917;-60
2022/07/31 15:22:41;;;;;;;;;;;;;;;;;;5040258;28;19917;-60
2022/07/31 15:25:06;;;;;;;;;;;;;;;;;;5036823;28;19966;-61
2022/07/31 15:27:31;;;;;;;;;;;;;;;;;;5027391;28;20067;-59
2022/07/31 15:29:56;;;;;;;;;;;;;;;;;;5038549;28;19916;-60
2022/07/31 15:32:24;;;;;;;;;;;;;;;;;;5027496;28;20677;-60
2022/07/31 15:34:51;;;;;;;;;;;;;;;;;;5039747;28;19926;-61
2022/07/31 15:37:16;;;;;;;;;;;;;;;;;;5040805;28;19917;-60
2022/07/31 15:42:59;;;;;;;;;;;;;;;;;;5038497;28;19970;-58
2022/07/31 15:45:27;;;;;;;;;;;;;;;;;;5042034;28;20622;-60
2022/07/31 15:47:54;;;;;;;;;;;;;;;;;;5036762;28;19925;-60
2022/07/31 15:50:22;;;;;;;;;;;;;;;;;;5040372;28;19924;-59
2022/07/31 15:52:47;;;;;;;;;;;;;;;;;;5038921;28;19962;-59
2022/07/31 15:55:13;;;;;;;;;;;;;;;;;;5046569;28;20046;-59
2022/07/31 15:57:41;;;;;;;;;;;;;;;;;;5038384;28;19921;-59
2022/07/31 16:00:09;;;;;;;;;;;;;;;;;;5040337;28;20017;-60
2022/07/31 16:02:34;;;;;;;;;;;;;;;;;;5041355;28;20317;-62
2022/07/31 16:04:59;;;;;;;;;;;;;;;;;;5039428;28;19925;-63
2022/07/31 16:07:27;;;;;;;;;;;;;;;;;;5037929;28;19916;-63
2022/07/31 16:09:56;;;;;;;;;;;;;;;;;;5039596;28;19920;-63
2022/07/31 16:12:26;;;;;;;;;;;;;;;;;;5035951;28;21249;-65
2022/07/31 16:14:53;;;;;;;;;;;;;;;;;;5036696;28;19920;-64
2022/07/31 16:17:19;;;;;;;;;;;;;;;;;;5039706;28;19917;-62
2022/07/31 16:19:49;;;;;;;;;;;;;;;;;;5040050;28;19935;-63
2022/07/31 16:22:17;;;;;;;;;;;;;;;;;;5040390;28;20011;-63
2022/07/31 16:24:45;;;;;;;;;;;;;;;;;;5037336;28;19927;-62
2022/07/31 16:27:10;;;;;;;;;;;;;;;;;;5039422;28;19924;-61
2022/07/31 16:29:36;;;;;;;;;;;;;;;;;;5039680;28;20384;-62
2022/07/31 16:32:01;;;;;;;;;;;;;;;;;;5039000;28;19966;-61
2022/07/31 16:34:27;;;;;;;;;;;;;;;;;;5038260;28;19928;-60
2022/07/31 16:36:52;;;;;;;;;;;;;;;;;;5038400;28;19924;-61
2022/07/31 16:39:21;;;;;;;;;;;;;;;;;;5039217;28;19920;-61
2022/07/31 16:41:48;;;;;;;;;;;;;;;;;;5038962;28;20035;-61
2022/07/31 16:44:14;;;;;;;;;;;;;;;;;;5035920;28;19930;-60
2022/07/31 16:46:39;;;;;;;;;;;;;;;;;;5038501;28;19956;-60